Time;durP1;ratioP1;P1;durP2;ratioP2;P2;SDS_P1;SDS_P2;PMS_P1;PMS_P2;Temp;Humidity;BMP_temperature;BMP_pressure;BME280_temperature;BME280_humidity;BME280_pressure;Samples;Min_cycle;Max_cycle;Signal;HPM_P1;HPM_P2
2022/09/18 00:00:47;;;;;;;12.55;2.03;;;;;;;;;;6313835;22;20014;-88
2022/09/18 00:03:14;;;;;;;9.65;1.60;;;;;;;;;;6340035;22;20056;-84
2022/09/18 00:05:40;;;;;;;8.63;1.15;;;;;;;;;;6286596;22;20074;-85
2022/09/18 00:08:24;;;;;;;;;;;;;;;;;;6338039;22;20099;-85
2022/09/18 00:10:50;;;;;;;7.43;1.45;;;;;;;;;;6286863;22;19918;-85
2022/09/18 00:13:26;;;;;;;9.05;1.58;;;;;;;;;;6285223;22;20018;-85
2022/09/18 00:15:55;;;;;;;9.55;1.50;;;;;;;;;;6342147;22;20408;-86
2022/09/18 00:18:25;;;;;;;13.02;1.48;;;;;;;;;;6313716;22;20065;-84
2022/09/18 00:20:51;;;;;;;12.80;2.75;;;;;;;;;;6341927;22;20027;-84
2022/09/18 00:23:17;;;;;;;8.07;1.20;;;;;;;;;;6341143;22;20025;-85
2022/09/18 00:25:43;;;;;;;9.85;1.70;;;;;;;;;;6313959;22;20014;-86
2022/09/18 00:28:09;;;;;;;10.00;1.65;;;;;;;;;;6313482;22;20023;-83
2022/09/18 00:30:35;;;;;;;9.05;1.25;;;;;;;;;;6340009;22;20023;-84
2022/09/18 00:33:01;;;;;;;8.90;1.40;;;;;;;;;;6341480;22;20019;-85
2022/09/18 00:35:27;;;;;;;6.75;1.42;;;;;;;;;;6313057;22;20018;-82
2022/09/18 00:37:53;;;;;;;10.10;2.30;;;;;;;;;;6348150;22;20018;-84
2022/09/18 00:40:19;;;;;;;11.55;1.60;;;;;;;;;;6317583;22;20015;-84
2022/09/18 00:42:45;;;;;;;9.27;1.40;;;;;;;;;;6342213;22;20080;-83
2022/09/18 00:45:12;;;;;;;7.88;1.35;;;;;;;;;;6343196;22;20019;-85
2022/09/18 00:47:40;;;;;;;8.68;1.63;;;;;;;;;;6314513;22;20111;-84
2022/09/18 00:50:09;;;;;;;13.93;1.60;;;;;;;;;;6341389;22;20010;-83
2022/09/18 00:52:39;;;;;;;9.43;1.48;;;;;;;;;;6313074;22;20015;-84
2022/09/18 00:55:07;;;;;;;6.78;1.33;;;;;;;;;;6342460;22;20051;-84
2022/09/18 00:57:34;;;;;;;12.45;1.27;;;;;;;;;;6312177;22;20218;-83
2022/09/18 01:00:03;;;;;;;7.20;1.20;;;;;;;;;;6342446;22;20011;-83
2022/09/18 01:02:32;;;;;;;22.52;2.00;;;;;;;;;;6287393;22;20022;-85
2022/09/18 01:04:58;;;;;;;13.95;3.25;;;;;;;;;;6342220;22;20688;-86
2022/09/18 01:07:39;;;;;;;9.13;1.80;;;;;;;;;;6314870;22;20338;-85
2022/09/18 01:10:15;;;;;;;15.27;2.00;;;;;;;;;;6316019;22;20019;-85
2022/09/18 01:12:45;;;;;;;15.73;1.95;;;;;;;;;;6341530;22;20019;-84
2022/09/18 01:15:37;;;;;;;10.20;3.28;;;;;;;;;;6341450;22;20324;-87
2022/09/18 01:18:03;;;;;;;11.98;1.83;;;;;;;;;;6343392;22;20010;-86
2022/09/18 01:20:48;;;;;;;9.73;1.38;;;;;;;;;;6289076;22;20015;-85
2022/09/18 01:23:17;;;;;;;14.00;1.67;;;;;;;;;;6344292;22;20014;-88
2022/09/18 01:25:59;;;;;;;10.90;2.17;;;;;;;;;;6289040;22;20516;-83
2022/09/18 01:28:31;;;;;;;7.78;1.80;;;;;;;;;;6289327;22;20026;-85
2022/09/18 01:31:01;;;;;;;15.57;2.03;;;;;;;;;;6316636;22;20070;-87
2022/09/18 01:33:48;;;;;;;6.30;1.33;;;;;;;;;;6313950;22;20343;-87
2022/09/18 01:36:15;;;;;;;12.82;1.77;;;;;;;;;;6343438;22;20046;-88
2022/09/18 01:38:53;;;;;;;10.30;1.52;;;;;;;;;;6343181;22;20014;-87
2022/09/18 01:41:27;;;;;;;9.15;1.63;;;;;;;;;;6291143;22;20030;-91
2022/09/18 01:44:01;;;;;;;14.75;1.63;;;;;;;;;;6344205;22;20886;-86
2022/09/18 01:46:27;;;;;;;15.38;1.92;;;;;;;;;;6289850;22;20059;-86
2022/09/18 01:48:59;;;;;;;12.20;1.70;;;;;;;;;;6319280;22;20022;-85
2022/09/18 01:51:31;;;;;;;14.80;1.63;;;;;;;;;;6319069;22;20026;-88
2022/09/18 01:54:00;;;;;;;10.85;1.73;;;;;;;;;;6344593;22;20110;-86
2022/09/18 01:56:45;;;;;;;9.90;1.65;;;;;;;;;;6340853;22;20092;-87
2022/09/18 01:59:12;;;;;;;15.63;2.15;;;;;;;;;;6287803;22;20018;-84
2022/09/18 02:01:46;;;;;;;17.08;2.10;;;;;;;;;;6339357;22;20452;-84
2022/09/18 02:04:49;;;;;;;18.80;2.30;;;;;;;;;;6339514;22;20018;-84
2022/09/18 02:07:26;;;;;;;10.05;1.95;;;;;;;;;;6314232;22;20667;-86
2022/09/18 02:09:52;;;;;;;16.45;2.25;;;;;;;;;;6340228;22;20015;-87
2022/09/18 02:12:29;;;;;;;15.02;2.08;;;;;;;;;;6312222;22;20053;-84
2022/09/18 02:15:32;;;;;;;10.48;1.92;;;;;;;;;;6242994;23;20488;-84
2022/09/18 02:17:58;;;;;;;;;;;;;;;;;;6247230;23;20549;-85
2022/09/18 02:20:29;;;;;;;20.52;2.53;;;;;;;;;;6269770;22;19923;-84
2022/09/18 02:23:00;;;;;;;12.75;2.38;;;;;;;;;;6218118;23;20103;-86
2022/09/18 02:25:32;;;;;;;18.42;2.53;;;;;;;;;;6243381;23;20027;-83
2022/09/18 02:27:59;;;;;;;11.98;1.50;;;;;;;;;;6245920;23;20392;-83
2022/09/18 02:30:25;;;;;;;12.07;2.00;;;;;;;;;;6166726;23;20016;-83
2022/09/18 02:32:53;;;;;;;19.55;2.47;;;;;;;;;;6244896;23;20027;-83
2022/09/18 02:35:19;;;;;;;16.58;1.63;;;;;;;;;;6243119;23;20055;-85
2022/09/18 02:37:48;;;;;;;10.52;2.00;;;;;;;;;;6245834;23;20048;-87
2022/09/18 02:40:30;;;;;;;11.52;2.13;;;;;;;;;;6243616;23;20054;-83
2022/09/18 02:42:56;;;;;;;9.35;1.30;;;;;;;;;;6243488;23;20043;-84
2022/09/18 02:45:28;;;;;;;8.93;1.10;;;;;;;;;;6267581;22;20027;-84
2022/09/18 02:48:22;;;;;;;5.97;1.10;;;;;;;;;;6338972;22;20049;-84
2022/09/18 02:54:11;;;;;;;9.87;1.50;;;;;;;;;;6311610;22;20304;-84
2022/09/18 02:56:59;;;;;;;12.77;1.52;;;;;;;;;;6339038;22;20233;-86
2022/09/18 02:59:42;;;;;;;12.57;1.30;;;;;;;;;;6313297;22;20088;-83
2022/09/18 03:02:08;;;;;;;7.50;1.20;;;;;;;;;;6309140;22;20462;-82
2022/09/18 03:04:34;;;;;;;9.15;1.58;;;;;;;;;;6313706;22;20742;-82
2022/09/18 03:07:00;;;;;;;9.82;1.52;;;;;;;;;;6338549;22;20079;-80
2022/09/18 03:09:28;;;;;;;15.18;1.80;;;;;;;;;;6339008;22;20393;-81
2022/09/18 03:11:54;;;;;;;14.15;1.50;;;;;;;;;;6339400;22;20027;-82
2022/09/18 03:14:21;;;;;;;15.13;1.73;;;;;;;;;;6338101;22;20386;-84
2022/09/18 03:16:47;;;;;;;12.57;2.03;;;;;;;;;;6312412;22;20018;-82
2022/09/18 03:19:13;;;;;;;12.57;2.30;;;;;;;;;;6338999;22;20404;-81
2022/09/18 03:21:40;;;;;;;14.85;1.80;;;;;;;;;;6340294;22;20022;-82
2022/09/18 03:24:06;;;;;;;23.35;2.63;;;;;;;;;;6338336;22;20021;-81
2022/09/18 03:26:32;;;;;;;20.58;1.98;;;;;;;;;;6339291;22;20467;-83
2022/09/18 03:28:58;;;;;;;15.63;1.90;;;;;;;;;;6338913;22;20026;-86
2022/09/18 03:31:24;;;;;;;16.23;2.90;;;;;;;;;;6341749;22;20026;-82
2022/09/18 03:33:51;;;;;;;10.75;1.80;;;;;;;;;;6341033;22;20014;-86
2022/09/18 03:36:17;;;;;;;17.38;3.47;;;;;;;;;;6285311;22;20019;-82
2022/09/18 03:38:43;;;;;;;21.80;2.28;;;;;;;;;;6338899;22;20030;-82
2022/09/18 03:41:09;;;;;;;13.32;1.55;;;;;;;;;;6283807;22;20014;-81
2022/09/18 03:43:44;;;;;;;14.00;1.50;;;;;;;;;;6340847;22;20078;-88
2022/09/18 03:46:10;;;;;;;12.65;1.92;;;;;;;;;;6337635;22;20025;-84
2022/09/18 03:48:42;;;;;;;11.45;1.95;;;;;;;;;;6288380;22;20023;-84
2022/09/18 03:51:08;;;;;;;9.27;1.77;;;;;;;;;;6311231;22;20053;-84
2022/09/18 03:53:34;;;;;;;13.68;1.83;;;;;;;;;;6312835;22;20023;-82
2022/09/18 03:56:00;;;;;;;16.02;1.60;;;;;;;;;;6338309;22;20056;-84
2022/09/18 03:58:35;;;;;;;9.60;1.70;;;;;;;;;;6286459;22;20018;-83
2022/09/18 04:01:02;;;;;;;7.72;1.20;;;;;;;;;;6341199;22;20033;-84
2022/09/18 04:03:28;;;;;;;8.13;1.58;;;;;;;;;;6343235;22;20011;-87
2022/09/18 04:05:54;;;;;;;10.80;1.60;;;;;;;;;;6343975;22;20025;-86
2022/09/18 04:08:20;;;;;;;11.00;1.48;;;;;;;;;;6342086;22;20019;-84
2022/09/18 04:10:47;;;;;;;10.75;1.88;;;;;;;;;;6345262;22;20014;-87
2022/09/18 04:13:13;;;;;;;12.23;1.88;;;;;;;;;;6346735;22;20034;-88
2022/09/18 04:15:39;;;;;;;10.05;1.58;;;;;;;;;;6347701;22;20029;-84
2022/09/18 04:18:05;;;;;;;22.05;2.95;;;;;;;;;;6340332;22;20023;-83
2022/09/18 04:20:31;;;;;;;7.85;1.52;;;;;;;;;;6341255;22;20015;-83
2022/09/18 04:22:58;;;;;;;19.75;2.08;;;;;;;;;;6310581;22;20057;-90
2022/09/18 04:25:24;;;;;;;10.85;1.77;;;;;;;;;;6316001;22;20022;-86
2022/09/18 04:27:50;;;;;;;5.43;1.35;;;;;;;;;;6286443;22;20093;-85
2022/09/18 04:30:34;;;;;;;9.27;1.95;;;11.40;99.90;;;;;;6339191;22;20023;-85
2022/09/18 04:33:03;;;;;;;15.82;2.08;;;;;;;;;;6338657;22;20093;-85
2022/09/18 04:35:30;;;;;;;6.90;1.92;;;;;;;;;;6298869;22;21172;-87
2022/09/18 04:37:56;;;;;;;15.65;1.60;;;;;;;;;;6286124;22;20098;-84
2022/09/18 04:40:40;;;;;;;15.40;1.48;;;;;;;;;;6340496;22;20034;-86
2022/09/18 04:43:09;;;;;;;9.43;1.20;;;;;;;;;;6341080;22;20026;-85
2022/09/18 04:45:35;;;;;;;10.63;1.35;;;;;;;;;;6314148;22;20039;-86
2022/09/18 04:48:01;;;;;;;7.72;1.00;;;;;;;;;;6343991;22;20142;-86
2022/09/18 04:50:56;;;;;;;10.60;1.40;;;;;;;;;;6313530;22;20015;-84
2022/09/18 04:53:22;;;;;;;6.70;0.77;;;;;;;;;;6345021;22;20080;-86
2022/09/18 04:55:48;;;;;;;6.35;1.10;;;;;;;;;;6284974;22;20019;-85
2022/09/18 04:58:19;;;;;;;5.90;1.13;;;;;;;;;;6313920;22;20053;-85
2022/09/18 05:00:58;;;;;;;;;;;;;;;;;;;;;
2022/09/18 05:03:36;;;;;;;10.85;1.10;;;;;;;;;;6290703;22;20022;-84
2022/09/18 05:06:02;;;;;;;8.45;1.20;;;;;;;;;;6286795;22;20110;-84
2022/09/18 05:08:29;;;;;;;7.80;1.52;;;;;;;;;;6343322;22;20019;-85
2022/09/18 05:10:59;;;;;;;8.43;1.30;;;;;;;;;;6339240;22;20093;-84
2022/09/18 05:13:25;;;;;;;7.10;0.90;;;;;;;;;;6287355;22;20027;-86
2022/09/18 05:22:55;;;;;;;6.38;1.60;;;;;;;;;;6164853;22;20064;-84
2022/09/18 05:25:31;;;;;;;8.43;1.30;;;;;;;;;;6279633;22;20022;-83
2022/09/18 05:34:36;;;;;;;4.93;1.05;;;;;;;;;;6181024;23;20425;-83
2022/09/18 05:40:22;;;;;;;5.00;1.35;;;;;;;;;;6289051;22;20019;-84
2022/09/18 05:42:54;;;;;;;4.40;0.95;;;;;;;;;;6337681;22;20015;-83
2022/09/18 05:45:33;;;;;;;4.65;1.00;;;;;;;;;;6338406;22;20014;-83
2022/09/18 05:48:04;;;;;;;11.80;1.67;;;;;;;;;;6286989;22;20019;-83
2022/09/18 05:50:31;;;;;;;6.80;1.45;;;;;;;;;;6335840;22;20097;-84
2022/09/18 05:53:13;;;;;;;6.10;1.33;;;;;;;;;;6311950;22;20026;-82
2022/09/18 05:55:42;;;;;;;10.65;1.50;;;;;;;;;;6338425;22;20023;-83
2022/09/18 06:02:35;;;;;;;10.70;1.58;;;;;;;;;;6299851;22;20083;-82
2022/09/18 06:11:55;;;;;;;6.80;1.38;;;;;;;;;;6342371;22;20018;-86
2022/09/18 06:14:43;;;;;;;15.82;1.75;;;;;;;;;;6314330;22;20324;-84
2022/09/18 06:17:51;;;;;;;12.80;2.63;;;;;;;;;;6283174;22;20094;-84
2022/09/18 06:28:12;;;;;;;12.82;1.63;;;;;;;;;;6342672;22;20090;-83
2022/09/18 06:30:38;;;;;;;12.05;1.67;;;;;;;;;;6285875;22;20018;-82
2022/09/18 06:36:24;;;;;;;13.00;1.70;;;;;;;;;;6321500;22;20019;-83
2022/09/18 06:49:36;;;;;;;14.52;1.42;;;;;;;;;;6320496;22;20026;-83
2022/09/18 07:03:03;;;;;;;10.38;1.73;;;10.90;99.90;;;;;;6338476;22;20103;-82
2022/09/18 07:22:18;;;;;;;12.15;2.13;;;;;;;;;;6347969;22;20030;-80
2022/09/18 07:25:04;;;;;;;25.30;1.88;;;;;;;;;;6343197;22;20041;-82
2022/09/18 07:27:30;;;;;;;10.65;1.90;;;;;;;;;;6342479;22;20487;-84
2022/09/18 07:55:07;;;;;;;10.13;1.73;;;;;;;;;;6341928;22;20097;-84
2022/09/18 08:01:54;;;;;;;17.30;1.98;;;;;;;;;;6340067;22;20033;-83
2022/09/18 08:07:31;;;;;;;16.77;1.95;;;;;;;;;;6313048;22;20021;-83
2022/09/18 08:10:25;;;;;;;11.15;1.63;;;;;;;;;;6286235;22;20494;-84
2022/09/18 08:13:16;;;;;;;16.08;2.50;;;;;;;;;;6285982;22;20023;-84
2022/09/18 08:19:23;;;;;;;15.23;2.78;;;;;;;;;;6342859;22;20033;-82
2022/09/18 08:21:55;;;;;;;13.40;1.80;;;;;;;;;;6315318;22;20033;-86
2022/09/18 08:33:51;;;;;;;12.05;1.98;;;;;;;;;;6344874;22;20382;-87
2022/09/18 08:36:18;;;;;;;11.10;1.60;;;;;;;;;;6343682;22;20439;-81
2022/09/18 08:49:36;;;;;;;10.15;1.65;;;;;;;;;;6346474;22;20022;-86
2022/09/18 08:52:23;;;;;;;5.90;1.40;;;;;;;;;;6314283;22;20109;-88
2022/09/18 08:58:17;;;;;;;12.75;1.35;;;;;;;;;;6344711;22;20099;-84
2022/09/18 09:00:48;;;;;;;12.40;1.73;;;;;;;;;;6345588;22;20029;-88
2022/09/18 09:03:42;;;;;;;9.55;1.40;;;;;;;;;;6294064;22;20105;-84
2022/09/18 09:06:19;;;;;;;13.57;1.95;;;;;;;;;;6317003;22;20090;-87
2022/09/18 09:08:54;;;;;;;11.25;1.83;;;;;;;;;;6217073;23;20031;-84
2022/09/18 09:11:20;;;;;;;10.52;1.70;;;;;;;;;;6245856;23;20015;-87
2022/09/18 09:14:12;;;;;;;16.92;2.20;;;;;;;;;;6240992;23;20016;-83
2022/09/18 09:20:19;;;;;;;16.27;1.55;;;;;;;;;;6155167;23;20069;-83
2022/09/18 09:22:44;;;;;;;;;;;;;;;;;;6181371;23;20369;-81
2022/09/18 09:25:19;;;;;;;7.32;1.23;;;;;;;;;;6184293;23;19916;-82
2022/09/18 09:28:02;;;;;;;7.55;1.60;;;;;;;;;;6221350;22;20012;-82
2022/09/18 09:30:30;;;;;;;6.85;1.60;;;;;;;;;;6248999;22;20016;-84
2022/09/18 09:33:19;;;;;;;7.03;1.40;;;;;;;;;;6274510;22;20035;-81
2022/09/18 09:35:54;;;;;;;5.72;1.27;;;;;;;;;;6274330;22;20230;-84
2022/09/18 09:38:27;;;;;;;7.93;0.90;;;;;;;;;;6277367;22;20488;-85
2022/09/18 09:41:13;;;;;;;10.82;1.25;;;;;;;;;;6332789;22;20080;-83
2022/09/18 09:43:42;;;;;;;5.65;1.15;;;;;;;;;;6312761;22;20052;-85
2022/09/18 09:46:13;;;;;;;7.45;1.73;;;;;;;;;;6285702;22;20026;-86
2022/09/18 09:52:20;;;;;;;6.88;0.90;;;;;;;;;;6339939;22;20512;-84
2022/09/18 09:54:53;;;;;;;10.77;1.15;;;;;;;;;;6283679;22;20014;-84
2022/09/18 09:57:48;;;;;;;6.10;0.98;;;;;;;;;;6338771;22;20015;-89
2022/09/18 10:00:33;;;;;;;13.98;1.50;;;;;;;;;;6307743;22;20197;-83
2022/09/18 10:03:36;;;;;;;8.50;1.25;;;;;;;;;;6311336;22;20022;-84
2022/09/18 10:06:12;;;;;;;9.27;1.33;;;;;;;;;;6305329;22;20060;-82
2022/09/18 10:08:41;;;;;;;8.75;1.25;;;;;;;;;;6312256;22;20030;-84
2022/09/18 10:11:07;;;;;;;14.85;1.67;;;;;;;;;;6313045;22;20025;-88
2022/09/18 10:13:36;;;;;;;11.55;1.40;;;;;;;;;;6315246;22;20089;-83
2022/09/18 10:16:17;;;;;;;10.70;1.33;;;;;;;;;;6342625;22;20352;-83
2022/09/18 10:18:48;;;;;;;9.18;1.52;;;;;;;;;;6341466;22;20051;-84
2022/09/18 10:21:21;;;;;;;7.88;1.20;;;;;;;;;;6341436;22;20092;-85
2022/09/18 10:23:57;;;;;;;6.20;1.38;;;;;;;;;;6288084;22;20478;-83
2022/09/18 10:26:25;;;;;;;7.68;1.58;;;;;;;;;;6311869;22;20442;-82
2022/09/18 10:28:51;;;;;;;11.07;1.67;;;;;;;;;;6287929;22;20141;-83
2022/09/18 10:31:18;;;;;;;8.52;1.20;;;;;;;;;;6313254;22;20061;-86
2022/09/18 10:33:49;;;;;;;14.05;1.58;;;;;;;;;;6314531;22;20022;-83
2022/09/18 10:36:18;;;;;;;10.65;1.50;;;;;;;;;;6340485;22;20019;-84
2022/09/18 10:38:47;;;;;;;7.53;1.33;;;;;;;;;;6340725;22;20015;-83
2022/09/18 10:41:32;;;;;;;13.30;2.00;;;;;;;;;;6286337;22;20056;-83
2022/09/18 10:43:58;;;;;;;6.93;1.30;;;;;;;;;;6342788;22;20030;-81
2022/09/18 10:46:31;;;;;;;7.95;1.80;;;;;;;;;;6299512;22;20015;-82
2022/09/18 10:48:58;;;;;;;5.78;1.10;;;;;;;;;;6314598;22;20030;-85
2022/09/18 10:51:27;;;;;;;6.60;0.90;;;;;;;;;;6314425;22;20097;-86
2022/09/18 10:54:23;;;;;;;4.75;1.08;;;;;;;;;;6313418;22;20015;-83
2022/09/18 10:56:52;;;;;;;6.32;1.17;;;;;;;;;;6308587;22;20395;-83
2022/09/18 10:59:27;;;;;;;5.88;0.98;;;;;;;;;;6313406;22;20011;-84
2022/09/18 11:02:00;;;;;;;8.27;1.30;;;;;;;;;;6342721;22;20023;-85
2022/09/18 11:04:27;;;;;;;9.37;1.63;;;;;;;;;;6343219;22;20033;-82
2022/09/18 11:06:55;;;;;;;6.40;1.08;;;;;;;;;;6342808;22;20018;-82
2022/09/18 11:09:25;;;;;;;11.10;2.17;;;;;;;;;;6313436;22;20015;-86
2022/09/18 11:11:51;;;;;;;5.55;1.45;;;;;;;;;;6314982;22;20019;-89
2022/09/18 11:14:51;;;;;;;16.33;1.98;;;;;;;;;;6344716;22;20350;-84
2022/09/18 11:17:22;;;;;;;10.25;1.75;;;;;;;;;;6279815;22;20022;-82
2022/09/18 11:20:10;;;;;;;8.63;1.40;;;;;;;;;;6315613;22;20015;-84
2022/09/18 11:22:36;;;;;;;8.05;1.50;;;;;;;;;;6343562;22;20347;-86
2022/09/18 11:25:07;;;;;;;6.60;1.23;;;;;;;;;;6345449;22;20049;-86
2022/09/18 11:27:43;;;;;;;6.55;1.27;;;;;;;;;;6346597;22;20034;-86
2022/09/18 11:30:14;;;;;;;7.63;1.65;;;;;;;;;;6320996;22;20272;-83
2022/09/18 11:33:03;;;;;;;10.90;1.40;;;;;;;;;;6343071;22;20057;-84
2022/09/18 11:35:31;;;;;;;8.98;1.35;;;;;;;;;;6294391;22;20021;-83
2022/09/18 11:37:59;;;;;;;9.73;1.40;;;;;;;;;;6340038;22;20011;-82
2022/09/18 11:40:28;;;;;;;8.55;1.77;;;;;;;;;;6339384;22;20019;-82
2022/09/18 11:43:19;;;;;;;10.43;2.05;;;;;;;;;;6338980;22;20053;-82
2022/09/18 11:45:51;;;;;;;12.18;2.13;;;;;;;;;;6285156;22;20076;-83
2022/09/18 11:48:42;;;;;;;12.85;1.98;;;;;;;;;;6311390;22;20030;-83
2022/09/18 11:51:44;;;;;;;12.20;1.83;;;;;;;;;;6338499;22;20018;-83
2022/09/18 11:54:57;;;;;;;16.50;2.33;;;;;;;;;;6246948;22;20018;-84
2022/09/18 11:57:42;;;;;;;9.95;1.80;;;;;;;;;;6184514;23;20037;-84
2022/09/18 12:00:19;;;;;;;7.95;2.13;;;;;;;;;;6135441;23;20489;-84
2022/09/18 12:03:04;;;;;;;9.43;1.90;;;;;;;;;;6129854;23;20079;-82
2022/09/18 12:05:39;;;;;;;6.45;1.42;;;;;;;;;;6185539;23;20484;-84
2022/09/18 12:08:17;;;;;;;6.53;1.40;;;;;;;;;;6159763;23;20024;-92
2022/09/18 12:10:53;;;;;;;7.57;1.33;;;;;;;;;;6160446;23;20032;-84
2022/09/18 12:13:25;;;;;;;6.60;1.60;;;;;;;;;;6206194;22;20481;-87
2022/09/18 12:16:02;;;;;;;7.55;2.10;;;;;;;;;;6285167;22;20050;-85
2022/09/18 12:18:31;;;;;;;9.13;1.48;;;;;;;;;;6340707;22;20030;-84
2022/09/18 12:21:03;;;;;;;9.13;1.52;;;;;;;;;;6339532;22;20062;-83
2022/09/18 12:23:29;;;;;;;12.18;2.10;;;;;;;;;;6294567;22;20030;-85
2022/09/18 12:33:00;;;;;;;5.97;1.33;;;;;;;;;;6330679;22;20011;-88
2022/09/18 12:35:34;;;;;;;8.05;1.40;;;;;;;;;;6331041;22;20438;-86
2022/09/18 12:50:19;;;;;;;18.10;1.80;;;;;;;;;;6329064;22;20033;-85
2022/09/18 12:52:51;;;;;;;10.68;2.03;;;;;;;;;;6278991;22;20183;-86
2022/09/18 13:01:58;;;;;;;9.73;1.60;;;;;;;;;;6306290;22;20073;-85
2022/09/18 13:04:28;;;;;;;13.38;2.13;;;;;;;;;;6309718;22;20076;-84
2022/09/18 13:10:28;;;;;;;9.85;2.13;;;;;;;;;;6277579;22;20092;-84
2022/09/18 13:12:54;;;;;;;15.38;2.05;;;;;;;;;;6335195;22;20014;-82
2022/09/18 13:22:09;;;;;;;11.38;2.33;;;;;;;;;;6332755;22;20449;-85
2022/09/18 13:34:57;;;;;;;6.75;1.77;;;;;;;;;;6150389;23;20025;-83
2022/09/18 13:37:25;;;;;;;14.07;2.13;;;;;;;;;;6176534;23;20407;-86
2022/09/18 13:40:07;;;;;;;11.73;2.30;;;;;;;;;;6280188;22;20014;-87
2022/09/18 13:42:39;;;;;;;8.88;1.85;;;;;;;;;;6337833;22;20019;-88
2022/09/18 13:45:37;;;;;;;9.35;1.45;;;;;;;;;;6333366;22;20023;-87
2022/09/18 13:48:04;;;;;;;11.25;1.70;;;;;;;;;;6338493;22;20033;-86
2022/09/18 13:50:34;;;;;;;10.35;1.88;;;;;;;;;;6337967;22;20015;-89
2022/09/18 13:53:01;;;;;;;9.20;1.60;;;;;;;;;;6315765;22;20038;-86
2022/09/18 13:55:34;;;;;;;16.17;2.60;;;;;;;;;;6313043;22;20475;-89
2022/09/18 13:58:19;;;;;;;12.43;2.28;;;;;;;;;;6336954;22;20030;-89
2022/09/18 14:00:45;;;;;;;12.45;2.30;;;;;;;;;;6305326;22;20810;-87
2022/09/18 14:03:18;;;;;;;12.60;2.22;;;;;;;;;;6334644;22;20619;-85
2022/09/18 14:05:44;;;;;;;12.18;2.17;;;;;;;;;;6309321;22;20023;-87
2022/09/18 14:08:23;;;;;;;13.05;2.08;;;;;;;;;;6336626;22;20023;-85
2022/09/18 14:10:49;;;;;;;18.83;2.78;;;;;;;;;;6334825;22;20291;-84
2022/09/18 14:13:16;;;;;;;15.25;2.28;;;;;;;;;;6307578;22;20104;-84
2022/09/18 14:16:01;;;;;;;13.57;2.33;;;;;;;;;;6309129;22;20053;-87
2022/09/18 14:18:31;;;;;;;12.15;2.60;;;;;;;;;;6334978;22;20450;-85
2022/09/18 14:21:11;;;;;;;17.83;2.90;;;;;;;;;;6338490;22;20040;-84
2022/09/18 14:23:46;;;;;;;14.50;2.53;;;;;;;;;;6305597;22;20395;-87
2022/09/18 14:26:28;;;;;;;17.65;2.83;;;;;;;;;;6305775;22;20042;-86
2022/09/18 14:29:11;;;;;;;13.57;1.75;;;;;;;;;;6303491;22;20030;-85
2022/09/18 14:31:49;;;;;;;9.23;2.10;;;;;;;;;;6302996;22;20019;-86
2022/09/18 14:34:18;;;;;;;13.93;1.90;;;;;;;;;;6281591;22;20066;-87
2022/09/18 14:36:45;;;;;;;17.13;2.67;;;;;;;;;;6279414;22;20114;-85
2022/09/18 14:39:24;;;;;;;12.25;2.17;;;;;;;;;;6306397;22;20431;-87
2022/09/18 14:41:52;;;;;;;14.57;2.22;;;;;;;;;;6329512;22;20744;-87
2022/09/18 14:44:19;;;;;;;10.82;1.80;;;;;;;;;;6334190;22;20329;-86
2022/09/18 14:46:52;;;;;;;9.68;1.75;;;;;;;;;;6304830;22;20019;-85
2022/09/18 14:51:46;;;;;;;12.88;2.13;;;;;;;;;;6334769;22;20019;-87
2022/09/18 14:54:30;;;;;;;7.75;1.38;;;;;;;;;;6337052;22;20019;-86
2022/09/18 14:57:02;;;;;;;8.40;1.60;;;;;;;;;;6339240;22;20029;-87
2022/09/18 14:59:28;;;;;;;12.05;1.50;;;;;;;;;;6326486;22;20078;-85
2022/09/18 15:02:12;;;;;;;9.15;1.50;;;;;;;;;;6303972;22;20019;-87
2022/09/18 15:04:41;;;;;;;7.85;1.13;;;;;;;;;;6304809;22;20046;-86
2022/09/18 15:07:15;;;;;;;15.65;1.80;;;;;;;;;;6305443;22;20014;-86
2022/09/18 15:09:49;;;;;;;9.25;1.45;;;;;;;;;;6277386;22;20026;-86
2022/09/18 15:12:17;;;;;;;12.93;2.42;;;;;;;;;;6305614;22;20097;-83
2022/09/18 15:14:50;;;;;;;12.50;2.30;;;;;;;;;;6298182;22;20023;-85
2022/09/18 15:17:21;;;;;;;20.37;2.80;;;;;;;;;;6279375;22;20114;-86
2022/09/18 15:19:58;;;;;;;15.60;1.90;;;;;;;;;;6332203;22;20253;-86
2022/09/18 15:22:24;;;;;;;18.33;3.05;;;;;;;;;;6303818;22;20023;-86
2022/09/18 15:24:50;;;;;;;11.30;1.90;;;;;;;;;;6332868;22;20019;-85
2022/09/18 15:27:26;;;;;;;11.45;1.52;;;;;;;;;;6305637;22;20027;-87
2022/09/18 15:30:18;;;;;;;10.25;1.63;;;;;;;;;;6276259;22;20019;-85
2022/09/18 15:32:46;;;;;;;15.27;2.47;;;;;;;;;;6299129;22;20018;-85
2022/09/18 15:35:18;;;;;;;11.55;1.77;;;;;;;;;;6334096;22;20015;-85
2022/09/18 15:37:49;;;;;;;10.77;1.80;;;;;;;;;;6308151;22;20021;-85
2022/09/18 15:40:17;;;;;;;12.20;2.17;;;;;;;;;;6307074;22;20030;-85
2022/09/18 15:42:57;;;;;;;11.23;1.90;;;;;;;;;;6335693;22;20036;-86
2022/09/18 15:45:24;;;;;;;11.95;1.58;;;;;;;;;;6334317;22;20381;-85
2022/09/18 15:47:50;;;;;;;20.50;2.55;;;;;;;;;;6309273;22;20014;-87
2022/09/18 15:50:16;;;;;;;19.27;2.60;;;;;;;;;;6333530;22;20025;-86
2022/09/18 15:52:47;;;;;;;12.52;2.08;;;;;;;;;;6303328;22;20519;-85
2022/09/18 15:55:30;;;;;;;18.15;1.73;;;;;;;;;;6329956;22;20023;-85
2022/09/18 15:57:58;;;;;;;7.50;1.48;;;;;;;;;;6303928;22;20100;-83
2022/09/18 16:00:29;;;;;;;12.68;2.35;;;;;;;;;;6301659;22;20031;-84
2022/09/18 16:03:03;;;;;;;7.88;1.70;;;;;;;;;;6332654;22;20026;-86
2022/09/18 16:05:31;;;;;;;14.73;1.88;;;;;;;;;;6303659;22;20385;-86
2022/09/18 16:07:59;;;;;;;8.27;1.80;;;;;;;;;;6331858;22;20116;-84
2022/09/18 16:10:34;;;;;;;9.82;2.00;;;;;;;;;;6331716;22;20015;-84
2022/09/18 16:13:20;;;;;;;10.77;1.67;;;;;;;;;;6331662;22;20050;-84
2022/09/18 16:16:21;;;;;;;18.85;2.75;;;;;;;;;;6334131;22;20025;-85
2022/09/18 16:18:54;;;;;;;13.15;2.33;;;;;;;;;;6281076;22;20470;-84
2022/09/18 16:21:21;;;;;;;9.38;1.67;;;;;;;;;;6310339;22;20023;-86
2022/09/18 16:23:52;;;;;;;9.38;1.88;;;;;;;;;;6305272;22;20047;-86
2022/09/18 16:26:22;;;;;;;11.20;1.95;;;;;;;;;;6331452;22;20011;-84
2022/09/18 16:28:50;;;;;;;15.00;2.00;;;;;;;;;;6331800;22;20026;-83
2022/09/18 16:31:17;;;;;;;15.32;2.55;;;;;;;;;;6330414;22;20011;-83
2022/09/18 16:34:09;;;;;;;12.30;2.03;;;;;;;;;;6332223;22;20484;-82
2022/09/18 16:36:35;;;;;;;15.27;2.05;;;;;;;;;;6226651;22;20415;-85
2022/09/18 16:39:04;;;;;;;11.25;2.15;;;;;;;;;;6332830;22;20086;-84
2022/09/18 16:41:31;;;;;;;16.17;1.92;;;;;;;;;;6329074;22;20406;-86
2022/09/18 16:43:58;;;;;;;13.63;1.63;;;;;;;;;;6329528;22;20536;-84
2022/09/18 16:46:27;;;;;;;21.05;2.70;;;;;;;;;;6304335;22;20466;-83
2022/09/18 16:48:54;;;;;;;19.80;1.92;;;;;;;;;;6329396;22;20027;-84
2022/09/18 16:51:20;;;;;;;17.55;2.60;;;;;;;;;;6302251;22;20019;-84
2022/09/18 16:53:47;;;;;;;11.65;1.70;;;;;;;;;;6327970;22;20018;-84
2022/09/18 16:56:17;;;;;;;14.48;2.80;;;;;;;;;;6301306;22;20097;-83
2022/09/18 16:58:43;;;;;;;13.40;2.70;;;;;;;;;;6328576;22;20037;-85
2022/09/18 17:01:09;;;;;;;16.25;2.17;;;;;;;;;;6303744;22;20027;-85
2022/09/18 17:03:41;;;;;;;20.25;2.38;;;;;;;;;;6328960;22;20072;-86
2022/09/18 17:06:07;;;;;;;17.00;2.80;;;;;;;;;;6302411;22;20017;-85
2022/09/18 17:08:33;;;;;;;25.52;3.40;;;;;;;;;;6301671;22;20094;-86
2022/09/18 17:10:59;;;;;;;25.73;3.58;;;;;;;;;;6329324;22;20025;-85
2022/09/18 17:13:28;;;;;;;28.42;4.38;;;;;;;;;;6331418;22;20100;-84
2022/09/18 17:15:54;;;;;;;19.80;2.65;;;;;;;;;;6302676;22;20080;-86
2022/09/18 17:18:20;;;;;;;19.92;3.30;;;;;;;;;;6308445;22;20050;-85
2022/09/18 17:20:46;;;;;;;13.88;2.10;;;;;;;;;;6330693;22;20070;-86
2022/09/18 17:23:12;;;;;;;25.25;2.80;;;;;;;;;;6328869;22;20019;-83
2022/09/18 17:25:42;;;;;;;25.10;2.05;;;;;;;;;;6275361;22;20017;-85
2022/09/18 17:28:09;;;;;;;13.75;2.78;;;;;;;;;;6330147;22;20033;-84
2022/09/18 17:30:44;;;;;;;11.48;1.50;;;;;;;;;;6297559;22;20019;-86
2022/09/18 17:33:10;;;;;;;9.88;1.77;;;;;;;;;;6329611;22;20065;-83
2022/09/18 17:35:36;;;;;;;15.52;2.38;;;;;;;;;;6331557;22;20057;-85
2022/09/18 17:38:03;;;;;;;13.90;1.90;;;;;;;;;;6331632;22;20050;-86
2022/09/18 17:40:29;;;;;;;19.70;4.25;;;;;;;;;;6306562;22;20080;-83
2022/09/18 17:42:56;;;;;;;16.70;2.40;;;;;;;;;;6279377;22;20064;-85
2022/09/18 17:45:22;;;;;;;18.23;2.20;;;;;;;;;;6336665;22;20073;-85
2022/09/18 17:47:52;;;;;;;19.15;3.03;;;;;;;;;;6335114;22;20045;-89
2022/09/18 17:50:21;;;;;;;16.67;2.75;;;;;;;;;;6307559;22;20091;-88
2022/09/18 17:52:58;;;;;;;27.70;3.53;;;;;;;;;;6331257;22;20022;-86
2022/09/18 17:55:24;;;;;;;14.82;2.40;;;;;;;;;;6305935;22;20131;-88
2022/09/18 17:57:51;;;;;;;18.50;2.58;;;;;;;;;;6307228;22;20017;-87
2022/09/18 18:00:18;;;;;;;26.92;3.70;;;;;;;;;;6332547;22;20021;-89
2022/09/18 18:02:44;;;;;;;24.50;2.47;;;;;;;;;;6305733;22;20030;-84
2022/09/18 18:05:10;;;;;;;29.63;4.22;;;;;;;;;;6332316;22;20015;-84
2022/09/18 18:07:42;;;;;;;34.83;3.88;;;;;;;;;;6334803;22;20014;-86
2022/09/18 18:10:11;;;;;;;38.38;4.10;;;;;;;;;;6304934;22;20149;-86
2022/09/18 18:12:46;;;;;;;32.08;3.85;;;;;;;;;;6279406;22;20086;-84
2022/09/18 18:15:12;;;;;;;34.45;3.42;;;;;;;;;;6333212;22;20015;-85
2022/09/18 18:17:58;;;;;;;42.92;4.13;;;;;;;;;;6302434;22;20046;-85
2022/09/18 18:20:24;;;;;;;31.52;3.72;;;;;;;;;;6332540;22;20023;-85
2022/09/18 18:22:53;;;;;;;15.68;2.45;;;;;;;;;;6303875;22;20023;-86